createdAt,value
2023-05-21T00:02:04.833Z,7.53
2023-05-21T00:04:31.534Z,6.57
2023-05-21T00:06:58.281Z,7.03
2023-05-21T00:09:26.385Z,6.80
2023-05-21T00:11:53.099Z,6.88
2023-05-21T00:14:19.856Z,7.47
2023-05-21T00:16:46.646Z,7.18
2023-05-21T00:19:13.540Z,6.68
2023-05-21T00:21:40.573Z,7.25
2023-05-21T00:24:07.372Z,7.50
2023-05-21T00:26:35.499Z,7.57
2023-05-21T00:29:02.225Z,7.22
2023-05-21T00:31:29.021Z,7.20
2023-05-21T00:33:55.859Z,7.78
2023-05-21T00:36:22.649Z,7.22
2023-05-21T00:38:49.677Z,7.68
2023-05-21T00:41:16.438Z,7.68
2023-05-21T00:43:44.628Z,7.03
2023-05-21T00:46:18.155Z,7.95
2023-05-21T00:48:44.981Z,7.68
2023-05-21T00:51:11.714Z,7.10
2023-05-21T00:53:38.463Z,7.07
2023-05-21T00:56:05.827Z,7.57
2023-05-21T00:58:32.824Z,6.93
2023-05-21T01:01:01.346Z,7.10
2023-05-21T01:03:28.391Z,6.97
2023-05-21T01:05:55.207Z,7.20
2023-05-21T01:08:21.911Z,7.43
2023-05-21T01:10:48.686Z,7.30
2023-05-21T01:13:15.425Z,8.00
2023-05-21T01:15:42.264Z,7.20
2023-05-21T01:18:10.533Z,7.47
2023-05-21T01:20:37.485Z,7.38
2023-05-21T01:23:05.589Z,7.40
2023-05-21T01:25:32.372Z,7.55
2023-05-21T01:27:59.115Z,7.15
2023-05-21T01:30:26.132Z,7.65
2023-05-21T01:32:56.507Z,7.30
2023-05-21T01:35:25.397Z,7.78
2023-05-21T01:37:53.124Z,7.32
2023-05-21T01:40:24.033Z,6.93
2023-05-21T01:42:50.967Z,7.40
2023-05-21T01:45:17.702Z,6.68
2023-05-21T01:47:45.077Z,6.68
2023-05-21T01:50:11.996Z,6.00
2023-05-21T01:52:38.884Z,6.53
2023-05-21T01:55:06.360Z,6.80
2023-05-21T01:57:34.450Z,6.68
2023-05-21T02:00:01.540Z,6.80
2023-05-21T02:02:28.449Z,6.28
2023-05-21T02:04:55.190Z,6.25
2023-05-21T02:07:22.162Z,6.88
2023-05-21T02:09:48.969Z,4.20
2023-05-21T02:12:15.805Z,6.93
2023-05-21T02:14:43.874Z,5.43
2023-05-21T02:17:10.610Z,6.18
2023-05-21T02:19:37.387Z,6.28
2023-05-21T02:22:04.383Z,6.20
2023-05-21T02:24:31.387Z,6.63
2023-05-21T02:26:58.078Z,6.50
2023-05-21T02:29:24.745Z,6.18
2023-05-21T02:31:52.901Z,6.55
2023-05-21T02:34:19.733Z,5.95
2023-05-21T02:36:46.704Z,6.50
2023-05-21T02:39:13.456Z,6.72
2023-05-21T02:41:40.188Z,6.15
2023-05-21T02:44:06.948Z,6.68
2023-05-21T02:46:33.802Z,6.25
2023-05-21T02:49:02.266Z,6.93
2023-05-21T02:51:29.248Z,6.20
2023-05-21T02:53:55.941Z,6.75
2023-05-21T02:56:22.708Z,6.45
2023-05-21T02:58:49.410Z,6.97
2023-05-21T03:01:16.141Z,6.70
2023-05-21T03:03:43.007Z,7.07
2023-05-21T03:06:11.166Z,6.82
2023-05-21T03:08:37.949Z,6.82
2023-05-21T03:11:04.762Z,6.63
2023-05-21T03:13:31.679Z,6.45
2023-05-21T03:15:58.500Z,6.65
2023-05-21T03:18:25.214Z,6.88
2023-05-21T03:20:52.178Z,6.30
2023-05-21T03:23:20.352Z,6.72
2023-05-21T03:25:47.082Z,6.07
2023-05-21T03:28:13.853Z,5.68
2023-05-21T03:30:40.591Z,6.78
2023-05-21T03:33:07.329Z,6.07
2023-05-21T03:35:34.197Z,6.43
2023-05-21T03:38:01.270Z,6.28
2023-05-21T03:40:29.430Z,6.60
2023-05-21T03:42:56.158Z,6.15
2023-05-21T03:45:23.037Z,5.38
2023-05-21T03:47:49.782Z,5.93
2023-05-21T03:50:16.672Z,5.68
2023-05-21T03:52:43.386Z,6.15
2023-05-21T03:55:10.148Z,6.00
2023-05-21T03:57:38.294Z,6.22
2023-05-21T04:00:06.456Z,5.95
2023-05-21T04:02:33.224Z,6.07
2023-05-21T04:05:00.013Z,6.28
2023-05-21T04:07:26.753Z,6.15
2023-05-21T04:09:53.542Z,6.18
2023-05-21T04:12:21.507Z,5.82
2023-05-21T04:14:49.694Z,5.45
2023-05-21T04:17:16.409Z,6.20
2023-05-21T04:19:43.260Z,5.90
2023-05-21T04:22:10.605Z,5.35
2023-05-21T04:24:37.275Z,4.65
2023-05-21T04:27:04.999Z,5.35
2023-05-21T04:29:31.687Z,5.47
2023-05-21T04:31:59.912Z,5.15
2023-05-21T04:34:26.594Z,4.90
2023-05-21T04:36:53.453Z,4.95
2023-05-21T04:39:20.156Z,4.40
2023-05-21T04:41:46.856Z,4.45
2023-05-21T04:44:13.726Z,5.10
2023-05-21T04:46:41.869Z,3.83
2023-05-21T04:49:10.436Z,4.13
2023-05-21T04:51:37.227Z,4.88
2023-05-21T04:54:03.989Z,3.92
2023-05-21T04:56:30.698Z,4.88
2023-05-21T04:58:57.479Z,5.05
2023-05-21T05:01:24.317Z,4.88
2023-05-21T05:03:51.699Z,4.40
2023-05-21T05:06:19.981Z,4.53
2023-05-21T05:08:46.701Z,4.53
2023-05-21T05:11:13.626Z,4.10
2023-05-21T05:16:07.304Z,4.30
2023-05-21T05:18:34.179Z,3.92
2023-05-21T05:21:00.990Z,4.05
2023-05-21T05:23:29.074Z,3.90
2023-05-21T05:25:55.777Z,2.60
2023-05-21T05:28:22.561Z,4.20
2023-05-21T05:30:49.332Z,4.05
2023-05-21T05:33:16.048Z,4.20
2023-05-21T05:35:43.936Z,4.60
2023-05-21T05:38:10.660Z,3.65
2023-05-21T05:40:38.730Z,3.80
2023-05-21T05:43:05.448Z,4.45
2023-05-21T05:45:32.161Z,3.83
2023-05-21T05:47:59.108Z,3.53
2023-05-21T05:50:25.954Z,4.53
2023-05-21T05:52:52.671Z,3.92
2023-05-21T05:55:19.450Z,3.50
2023-05-21T05:57:47.555Z,4.25
2023-05-21T06:00:15.498Z,3.67
2023-05-21T06:02:42.319Z,3.35
2023-05-21T06:05:10.163Z,3.92
2023-05-21T06:07:37.515Z,4.03
2023-05-21T06:10:04.828Z,3.13
2023-05-21T06:12:31.640Z,3.80
2023-05-21T06:14:59.699Z,3.90
2023-05-21T06:17:26.482Z,3.15
2023-05-21T06:19:53.758Z,2.67
2023-05-21T06:22:20.490Z,3.13
2023-05-21T06:24:47.277Z,3.17
2023-05-21T06:27:14.922Z,3.47
2023-05-21T06:29:41.586Z,3.22
2023-05-21T06:32:09.784Z,2.80
2023-05-21T06:34:36.581Z,3.47
2023-05-21T06:37:03.652Z,3.70
2023-05-21T06:39:30.367Z,3.50
2023-05-21T06:41:57.113Z,2.80
2023-05-21T06:44:24.171Z,2.45
2023-05-21T06:46:50.955Z,3.10
2023-05-21T06:49:19.192Z,3.78
2023-05-21T06:51:45.879Z,3.17
2023-05-21T06:54:12.684Z,2.92
2023-05-21T06:56:40.098Z,3.92
2023-05-21T06:59:06.802Z,3.30
2023-05-21T07:01:34.298Z,3.53
2023-05-21T07:04:01.099Z,3.00
2023-05-21T07:06:29.152Z,2.92
2023-05-21T07:08:55.854Z,3.33
2023-05-21T07:11:22.610Z,3.15
2023-05-21T07:13:49.435Z,3.55
2023-05-21T07:16:16.149Z,3.40
2023-05-21T07:18:42.912Z,2.90
2023-05-21T07:21:09.772Z,3.45
2023-05-21T07:23:37.851Z,3.05
2023-05-21T07:26:04.901Z,3.30
2023-05-21T07:28:31.594Z,3.40
2023-05-21T07:30:58.396Z,3.60
2023-05-21T07:33:25.291Z,3.17
2023-05-21T07:35:51.983Z,3.55
2023-05-21T07:38:18.729Z,3.10
2023-05-21T07:40:46.876Z,3.35
2023-05-21T07:43:13.609Z,3.55
2023-05-21T07:45:40.311Z,3.08
2023-05-21T07:48:07.059Z,3.92
2023-05-21T07:50:33.873Z,3.42
2023-05-21T07:53:00.707Z,3.13
2023-05-21T07:55:27.525Z,4.13
2023-05-21T07:57:55.640Z,3.50
2023-05-21T08:00:23.830Z,3.40
2023-05-21T08:02:50.639Z,2.80
2023-05-21T08:05:17.530Z,2.70
2023-05-21T08:07:44.578Z,2.78
2023-05-21T08:10:11.459Z,3.05
2023-05-21T08:12:38.291Z,3.30
2023-05-21T08:15:07.768Z,3.22
2023-05-21T08:17:35.009Z,3.05
2023-05-21T08:20:01.832Z,3.22
2023-05-21T08:22:28.576Z,3.53
2023-05-21T08:24:55.496Z,2.13
2023-05-21T08:27:22.250Z,4.00
2023-05-21T08:29:48.962Z,3.40
2023-05-21T08:32:17.280Z,3.45
2023-05-21T08:34:43.966Z,3.20
2023-05-21T08:37:10.720Z,3.50
2023-05-21T08:39:37.510Z,3.20
2023-05-21T08:42:09.632Z,3.08
2023-05-21T08:44:36.299Z,3.80
2023-05-21T08:47:03.124Z,3.65
2023-05-21T08:49:31.278Z,3.72
2023-05-21T08:51:57.964Z,3.58
2023-05-21T08:54:24.994Z,3.85
2023-05-21T08:56:51.814Z,3.70
2023-05-21T08:59:18.613Z,3.10
2023-05-21T09:01:45.803Z,3.60
2023-05-21T09:06:47.521Z,3.25
2023-05-21T09:09:26.809Z,3.50
2023-05-21T09:11:53.635Z,3.00
2023-05-21T09:14:20.331Z,3.10
2023-05-21T09:16:47.127Z,2.88
2023-05-21T09:19:13.931Z,3.40
2023-05-21T09:21:40.753Z,2.55
2023-05-21T09:24:09.321Z,3.40
2023-05-21T09:26:36.303Z,2.95
2023-05-21T09:29:03.159Z,3.35
2023-05-21T09:31:29.904Z,3.28
2023-05-21T09:33:56.678Z,3.10
2023-05-21T09:36:23.922Z,3.28
2023-05-21T09:38:50.818Z,6.60
2023-05-21T09:41:21.909Z,3.20
2023-05-21T09:43:48.954Z,2.70
2023-05-21T09:46:16.157Z,3.60
2023-05-21T09:48:43.245Z,3.20
2023-05-21T09:51:10.907Z,3.03
2023-05-21T09:53:38.193Z,4.07
2023-05-21T09:56:05.709Z,3.92
2023-05-21T09:58:34.262Z,4.75
2023-05-21T10:01:01.015Z,3.58
2023-05-21T10:03:27.986Z,3.20
2023-05-21T10:05:54.684Z,3.50
2023-05-21T10:08:21.771Z,3.85
2023-05-21T10:10:48.509Z,4.18
2023-05-21T10:13:16.247Z,3.17
2023-05-21T10:15:45.955Z,2.90
2023-05-21T10:18:13.344Z,3.58
2023-05-21T10:20:40.085Z,4.63
2023-05-21T10:23:06.794Z,3.53
2023-05-21T10:25:33.533Z,3.92
2023-05-21T10:28:00.254Z,3.90
2023-05-21T10:30:26.969Z,5.70
2023-05-21T10:32:56.098Z,2.83
2023-05-21T10:35:22.988Z,15.18
2023-05-21T10:37:49.673Z,4.70
2023-05-21T10:40:16.772Z,4.40
2023-05-21T10:43:05.972Z,3.08
2023-05-21T10:45:41.325Z,2.47
2023-05-21T10:48:19.372Z,2.92
2023-05-21T10:51:08.190Z,4.43
2023-05-21T10:53:42.671Z,2.85
2023-05-21T10:58:47.818Z,2.58
2023-05-21T11:01:14.793Z,2.88
2023-05-21T11:03:43.076Z,2.70
2023-05-21T11:06:09.842Z,2.63
2023-05-21T11:08:36.838Z,2.38
2023-05-21T11:11:03.604Z,2.47
2023-05-21T11:13:45.067Z,2.72
2023-05-21T11:16:15.070Z,2.33
2023-05-21T11:19:02.349Z,2.03
2023-05-21T11:21:30.062Z,2.60
2023-05-21T11:23:59.352Z,2.85
2023-05-21T11:26:27.207Z,4.25
2023-05-21T11:29:06.828Z,3.30
2023-05-21T11:31:34.167Z,2.50
2023-05-21T11:34:14.238Z,2.47
2023-05-21T11:36:41.158Z,2.45
2023-05-21T11:39:11.402Z,2.75
2023-05-21T11:41:51.791Z,2.65
2023-05-21T11:44:18.720Z,2.35
2023-05-21T11:46:45.586Z,2.65
2023-05-21T11:49:13.922Z,2.50
2023-05-21T11:51:40.686Z,2.80
